Time;durP1;ratioP1;P1;durP2;ratioP2;P2;SDS_P1;SDS_P2;PMS_P1;PMS_P2;Temp;Humidity;BMP_temperature;BMP_pressure;BME280_temperature;BME280_humidity;BME280_pressure;Samples;Min_cycle;Max_cycle;Signal;HPM_P1;HPM_P2
2022/02/27 00:02:01;;;;;;;12.43;5.40;;;2.00;99.90;;;;;;4134209;28;20473;-83
2022/02/27 00:04:03;;;;;;;12.70;5.50;;;1.90;99.90;;;;;;4138985;28;20543;-83
2022/02/27 00:06:04;;;;;;;12.97;5.77;;;2.00;99.90;;;;;;4132714;28;20881;-83
2022/02/27 00:08:07;;;;;;;12.57;5.43;;;1.90;99.90;;;;;;4132821;28;20526;-82
2022/02/27 00:10:11;;;;;;;12.03;5.57;;;2.20;99.90;;;;;;4131975;28;20473;-82
2022/02/27 00:12:13;;;;;;;17.23;5.40;;;1.90;99.90;;;;;;4132791;28;20481;-82
2022/02/27 00:14:15;;;;;;;12.67;4.70;;;1.90;99.90;;;;;;4131448;28;20902;-83
2022/02/27 00:16:17;;;;;;;13.70;4.90;;;1.90;99.90;;;;;;4131463;28;20467;-84
2022/02/27 00:18:18;;;;;;;11.40;4.97;;;1.90;99.90;;;;;;4130734;28;20486;-82
2022/02/27 00:20:20;;;;;;;13.73;5.07;;;1.90;99.90;;;;;;4132870;28;20442;-82
2022/02/27 00:22:22;;;;;;;9.97;3.90;;;1.90;99.90;;;;;;4131854;28;20464;-82
2022/02/27 00:24:25;;;;;;;11.10;4.47;;;2.10;99.90;;;;;;4131924;28;20482;-82
2022/02/27 00:26:27;;;;;;;12.13;4.47;;;1.90;99.90;;;;;;4127856;28;20462;-85
2022/02/27 00:28:29;;;;;;;11.23;4.47;;;1.80;99.90;;;;;;4131663;28;20447;-82
2022/02/27 00:30:31;;;;;;;9.90;4.30;;;1.80;99.90;;;;;;4139998;28;20461;-82
2022/02/27 00:32:33;;;;;;;11.50;4.00;;;1.80;99.90;;;;;;4132733;28;20997;-82
2022/02/27 00:34:35;;;;;;;8.63;4.30;;;1.80;99.90;;;;;;4138746;28;20466;-82
2022/02/27 00:36:36;;;;;;;10.23;3.90;;;1.80;99.90;;;;;;4132144;28;20534;-82
2022/02/27 00:38:38;;;;;;;11.47;4.33;;;1.80;99.90;;;;;;4132690;28;20494;-83
2022/02/27 00:40:41;;;;;;;12.43;4.97;;;1.80;99.90;;;;;;4130934;28;20462;-82
2022/02/27 00:42:43;;;;;;;12.23;5.03;;;1.80;99.90;;;;;;4145722;28;20740;-83
2022/02/27 00:44:45;;;;;;;9.33;5.03;;;1.80;99.90;;;;;;4132275;28;20472;-82
2022/02/27 00:46:47;;;;;;;9.50;4.53;;;1.70;99.90;;;;;;4130825;28;20550;-82
2022/02/27 00:48:49;;;;;;;8.33;4.73;;;1.70;99.90;;;;;;4132575;28;20447;-82
2022/02/27 00:50:51;;;;;;;10.33;5.17;;;1.70;99.90;;;;;;4144609;28;20532;-82
2022/02/27 00:52:52;;;;;;;10.97;4.73;;;1.70;99.90;;;;;;4148750;28;20470;-83
2022/02/27 00:54:54;;;;;;;11.00;4.80;;;1.70;99.90;;;;;;4139729;28;20486;-83
2022/02/27 00:56:57;;;;;;;10.33;4.70;;;1.80;99.90;;;;;;4131998;28;20494;-83
2022/02/27 00:58:59;;;;;;;11.87;4.90;;;1.70;99.90;;;;;;4131742;28;20548;-82
2022/02/27 01:01:01;;;;;;;11.03;4.80;;;1.70;99.90;;;;;;4131639;28;20839;-82
2022/02/27 01:03:03;;;;;;;12.73;5.23;;;1.70;99.90;;;;;;4130772;28;20863;-82
2022/02/27 01:05:06;;;;;;;10.63;4.53;;;1.70;99.90;;;;;;4137459;28;20505;-83
2022/02/27 01:07:07;;;;;;;14.27;5.27;;;1.60;99.90;;;;;;4142661;28;20485;-82
2022/02/27 01:09:09;;;;;;;8.17;4.43;;;1.60;99.90;;;;;;4132184;28;20458;-82
2022/02/27 01:11:12;;;;;;;10.33;5.00;;;1.60;99.90;;;;;;4131542;28;20478;-82
2022/02/27 01:13:15;;;;;;;9.77;4.73;;;1.60;99.90;;;;;;4131340;28;20982;-82
2022/02/27 01:15:18;;;;;;;14.93;5.20;;;1.90;99.90;;;;;;4132025;28;20520;-82
2022/02/27 01:17:19;;;;;;;11.67;5.30;;;1.60;99.90;;;;;;4127055;28;20474;-82
2022/02/27 01:19:21;;;;;;;9.33;4.93;;;1.60;99.90;;;;;;4127382;28;20574;-83
2022/02/27 01:21:23;;;;;;;10.83;5.20;;;1.60;99.90;;;;;;4128025;28;20446;-83
2022/02/27 01:23:25;;;;;;;12.33;4.97;;;1.60;99.90;;;;;;4126697;28;20458;-83
2022/02/27 01:25:27;;;;;;;10.33;5.50;;;1.60;99.90;;;;;;4127718;28;20581;-84
2022/02/27 01:27:29;;;;;;;15.90;5.13;;;1.60;99.90;;;;;;4123340;28;20478;-84
2022/02/27 01:29:32;;;;;;;11.53;5.57;;;1.60;99.90;;;;;;4125212;28;20457;-84
2022/02/27 01:31:34;;;;;;;13.00;5.50;;;1.60;99.90;;;;;;4130588;28;20466;-83
2022/02/27 01:33:36;;;;;;;14.93;6.10;;;1.50;99.90;;;;;;4127139;28;20482;-83
2022/02/27 01:35:38;;;;;;;11.50;5.60;;;1.50;99.90;;;;;;4130107;28;20467;-82
2022/02/27 01:37:40;;;;;;;11.87;5.80;;;1.50;99.90;;;;;;4137273;28;20453;-84
2022/02/27 01:39:42;;;;;;;13.17;6.17;;;1.50;99.90;;;;;;4130840;28;20481;-82
2022/02/27 01:41:45;;;;;;;12.47;5.70;;;1.50;99.90;;;;;;4130554;28;20505;-83
2022/02/27 01:43:47;;;;;;;13.77;6.17;;;1.40;99.90;;;;;;4132632;28;20495;-82
2022/02/27 01:45:50;;;;;;;15.93;6.20;;;1.40;99.90;;;;;;4137230;28;20513;-83
2022/02/27 01:47:52;;;;;;;14.10;6.30;;;1.40;99.90;;;;;;4129730;28;20468;-85
2022/02/27 01:49:55;;;;;;;14.47;6.10;;;1.40;99.90;;;;;;4128909;28;20461;-83
2022/02/27 01:51:57;;;;;;;17.70;6.33;;;1.40;99.90;;;;;;4128805;28;20529;-83
2022/02/27 01:53:59;;;;;;;15.00;6.57;;;1.40;99.90;;;;;;4131514;28;20481;-82
2022/02/27 01:56:02;;;;;;;14.03;5.70;;;1.40;99.90;;;;;;4130203;28;20477;-83
2022/02/27 01:58:04;;;;;;;11.90;6.10;;;1.40;99.90;;;;;;4127185;28;20470;-83
2022/02/27 02:00:07;;;;;;;15.00;6.50;;;1.60;99.90;;;;;;4128263;28;20560;-84
2022/02/27 02:02:10;;;;;;;14.07;7.00;;;1.30;99.90;;;;;;4126625;28;20560;-83
2022/02/27 02:04:12;;;;;;;16.03;6.60;;;1.30;99.90;;;;;;4136352;28;20474;-85
2022/02/27 02:06:14;;;;;;;13.27;5.97;;;1.30;99.90;;;;;;4132053;28;20466;-84
2022/02/27 02:08:16;;;;;;;14.80;6.73;;;1.60;99.90;;;;;;4134481;28;20828;-83
2022/02/27 02:10:18;;;;;;;13.87;6.20;;;1.20;99.90;;;;;;4134590;28;20455;-82
2022/02/27 02:12:20;;;;;;;11.93;6.17;;;1.20;99.90;;;;;;4133718;28;20499;-83
2022/02/27 02:14:22;;;;;;;12.70;6.37;;;1.20;99.90;;;;;;4136490;28;20500;-82
2022/02/27 02:16:24;;;;;;;17.57;6.77;;;1.20;99.90;;;;;;4135566;28;20461;-83
2022/02/27 02:18:27;;;;;;;13.00;6.53;;;1.20;99.90;;;;;;4133869;28;20449;-83
2022/02/27 02:20:30;;;;;;;12.77;6.10;;;1.20;99.90;;;;;;4133162;28;20484;-83
2022/02/27 02:22:32;;;;;;;16.03;6.40;;;1.20;99.90;;;;;;4134367;28;20449;-82
2022/02/27 02:24:33;;;;;;;15.53;6.57;;;1.20;99.90;;;;;;4147201;28;20546;-83
2022/02/27 02:26:38;;;;;;;12.07;5.80;;;1.10;99.90;;;;;;4136315;28;20480;-83
2022/02/27 02:28:40;;;;;;;15.80;6.70;;;1.10;99.90;;;;;;4133349;28;20553;-83
2022/02/27 02:30:42;;;;;;;13.40;7.73;;;1.10;99.90;;;;;;4133404;28;20454;-82
2022/02/27 02:32:49;;;;;;;17.90;6.70;;;1.30;99.90;;;;;;4132285;28;20466;-83
2022/02/27 02:34:51;;;;;;;14.53;6.07;;;1.00;99.90;;;;;;4133567;28;20490;-83
2022/02/27 02:36:55;;;;;;;13.50;6.63;;;1.00;99.90;;;;;;4133660;28;20473;-83
2022/02/27 02:38:57;;;;;;;14.33;6.60;;;1.00;99.90;;;;;;4146663;28;20455;-84
2022/02/27 02:40:59;;;;;;;13.03;6.53;;;1.00;99.90;;;;;;4134053;28;20471;-85
2022/02/27 02:43:00;;;;;;;15.77;6.90;;;0.90;99.90;;;;;;4144462;28;20448;-83
2022/02/27 02:45:03;;;;;;;14.90;6.67;;;0.90;99.90;;;;;;4133951;28;20474;-82
2022/02/27 02:47:05;;;;;;;17.97;7.13;;;0.90;99.90;;;;;;4133174;28;20453;-83
2022/02/27 02:49:08;;;;;;;17.70;7.10;;;0.90;99.90;;;;;;4134139;28;20462;-82
2022/02/27 02:51:10;;;;;;;13.43;6.43;;;0.90;99.90;;;;;;4133116;28;20473;-82
2022/02/27 02:53:13;;;;;;;13.07;6.80;;;0.90;99.90;;;;;;4132755;28;20972;-82
2022/02/27 02:55:18;;;;;;;14.47;6.97;;;0.80;99.90;;;;;;4133689;28;20467;-82
2022/02/27 02:57:20;;;;;;;14.27;7.07;;;0.80;99.90;;;;;;4146612;28;20448;-82
2022/02/27 02:59:24;;;;;;;14.87;6.80;;;0.80;99.90;;;;;;4146723;28;20484;-82
2022/02/27 03:01:26;;;;;;;19.00;7.27;;;0.80;99.90;;;;;;4139161;28;20488;-82
2022/02/27 03:03:28;;;;;;;15.67;6.80;;;0.80;99.90;;;;;;4133611;28;21047;-81
2022/02/27 03:05:29;;;;;;;12.87;6.83;;;0.80;99.90;;;;;;4133933;28;20906;-82
2022/02/27 03:07:31;;;;;;;14.37;7.50;;;0.90;99.90;;;;;;4134615;28;20878;-82
2022/02/27 03:09:35;;;;;;;16.67;7.33;;;0.70;99.90;;;;;;4132973;28;20454;-82
2022/02/27 03:11:37;;;;;;;14.90;6.83;;;0.70;99.90;;;;;;4134723;28;20453;-82
2022/02/27 03:13:39;;;;;;;16.60;7.10;;;0.70;99.90;;;;;;4131387;28;21010;-82
2022/02/27 03:15:40;;;;;;;17.60;6.70;;;0.70;99.90;;;;;;4132539;28;20456;-82
2022/02/27 03:17:42;;;;;;;14.83;6.67;;;0.60;99.90;;;;;;4134154;28;20496;-82
2022/02/27 03:19:44;;;;;;;17.13;7.57;;;0.60;99.90;;;;;;4134120;28;21035;-82
2022/02/27 03:21:46;;;;;;;17.70;7.47;;;0.60;99.90;;;;;;4134079;28;20465;-82
2022/02/27 03:23:49;;;;;;;15.93;7.50;;;0.60;99.90;;;;;;4133843;28;20501;-82
2022/02/27 03:25:52;;;;;;;13.57;7.57;;;0.60;99.90;;;;;;4134841;28;20551;-82
2022/02/27 03:27:54;;;;;;;15.03;7.50;;;0.60;99.90;;;;;;4135942;28;20479;-82
2022/02/27 03:29:56;;;;;;;16.13;6.87;;;0.60;99.90;;;;;;4144959;28;20797;-82
2022/02/27 03:31:58;;;;;;;14.10;7.07;;;0.50;99.90;;;;;;4133628;28;20832;-82
2022/02/27 03:33:59;;;;;;;15.67;6.90;;;0.50;99.90;;;;;;4133956;28;20480;-82
2022/02/27 03:36:01;;;;;;;18.57;7.43;;;0.50;99.90;;;;;;4134603;28;20525;-82
2022/02/27 03:38:04;;;;;;;14.03;7.10;;;0.50;99.90;;;;;;4139345;28;20529;-82
2022/02/27 03:40:07;;;;;;;14.23;6.53;;;0.50;99.90;;;;;;4134258;28;20536;-82
2022/02/27 03:42:11;;;;;;;17.13;7.10;;;0.50;99.90;;;;;;4133028;28;20464;-82
2022/02/27 03:44:12;;;;;;;19.87;8.07;;;0.50;99.90;;;;;;4144335;28;20866;-82
2022/02/27 03:46:14;;;;;;;19.23;7.70;;;0.50;99.90;;;;;;4134230;28;20468;-82
2022/02/27 03:48:16;;;;;;;20.43;6.90;;;0.40;99.90;;;;;;4132795;28;20879;-82
2022/02/27 03:50:19;;;;;;;12.83;6.43;;;0.40;99.90;;;;;;4133731;28;20452;-82
2022/02/27 03:52:20;;;;;;;13.07;6.40;;;0.40;99.90;;;;;;4135230;28;20817;-82
2022/02/27 03:54:22;;;;;;;16.63;7.07;;;0.40;99.90;;;;;;4132743;28;20486;-82
2022/02/27 03:56:24;;;;;;;17.77;6.67;;;0.40;99.90;;;;;;4132156;28;20514;-82
2022/02/27 03:58:27;;;;;;;17.07;8.33;;;0.30;99.90;;;;;;4129437;28;20532;-82
2022/02/27 04:00:29;;;;;;;17.53;7.00;;;0.30;99.90;;;;;;4120515;28;21027;-82
2022/02/27 04:02:31;;;;;;;15.13;6.50;;;0.30;99.90;;;;;;4122424;28;20496;-82
2022/02/27 04:04:32;;;;;;;13.70;6.47;;;0.30;99.90;;;;;;4134832;28;20547;-82
2022/02/27 04:06:34;;;;;;;15.33;7.27;;;0.30;99.90;;;;;;4133964;28;21010;-82
2022/02/27 04:08:39;;;;;;;13.30;6.20;;;0.30;99.90;;;;;;4127758;28;20468;-82
2022/02/27 04:10:43;;;;;;;13.50;7.43;;;0.20;99.90;;;;;;4133711;28;20836;-82
2022/02/27 04:12:44;;;;;;;15.47;7.27;;;0.20;99.90;;;;;;4128354;28;20448;-82
2022/02/27 04:14:48;;;;;;;12.47;6.50;;;0.20;99.90;;;;;;4134120;28;20499;-82
2022/02/27 04:16:50;;;;;;;13.40;6.90;;;0.50;99.90;;;;;;4129008;28;20464;-82
2022/02/27 04:18:52;;;;;;;16.07;6.37;;;0.10;99.90;;;;;;4132851;28;20472;-82
2022/02/27 04:20:54;;;;;;;14.63;7.10;;;0.20;99.90;;;;;;4136572;28;20963;-82
2022/02/27 04:22:56;;;;;;;14.80;6.77;;;0.20;99.90;;;;;;4138138;28;20491;-82
2022/02/27 04:24:58;;;;;;;15.23;6.77;;;0.20;99.90;;;;;;4170641;23;20579;-78
2022/02/27 04:26:59;;;;;;;15.07;7.50;;;0.20;99.90;;;;;;4164263;28;20463;-79
2022/02/27 04:29:01;;;;;;;16.60;8.00;;;0.20;99.90;;;;;;4156790;28;20468;-77
2022/02/27 04:31:04;;;;;;;13.00;6.70;;;0.20;99.90;;;;;;4160802;28;20880;-78
2022/02/27 04:33:06;;;;;;;13.90;6.93;;;0.20;99.90;;;;;;4164579;28;20482;-78
2022/02/27 04:35:11;;;;;;;17.33;7.57;;;0.20;99.90;;;;;;4147692;28;20544;-78
2022/02/27 04:37:13;;;;;;;11.10;6.63;;;0.20;99.90;;;;;;4151687;28;20641;-79
2022/02/27 04:39:14;;;;;;;13.23;7.23;;;0.20;99.90;;;;;;4153063;28;20471;-78
2022/02/27 04:41:18;;;;;;;14.23;6.70;;;0.20;99.90;;;;;;4137052;28;20492;-78
2022/02/27 04:43:19;;;;;;;13.23;7.10;;;0.20;99.90;;;;;;4143029;28;20518;-78
2022/02/27 04:45:21;;;;;;;13.33;6.73;;;0.20;99.90;;;;;;4151895;28;20470;-78
2022/02/27 04:47:24;;;;;;;15.40;7.07;;;0.50;99.90;;;;;;4152730;28;20456;-79
2022/02/27 04:49:27;;;;;;;14.70;7.13;;;0.20;99.90;;;;;;4152839;28;20439;-78
2022/02/27 04:51:28;;;;;;;18.27;7.50;;;0.20;99.90;;;;;;4152599;28;20456;-78
2022/02/27 04:53:30;;;;;;;16.63;7.43;;;0.20;99.90;;;;;;4145607;28;20540;-79
2022/02/27 04:55:32;;;;;;;14.43;7.53;;;0.10;99.90;;;;;;4153448;28;20478;-79
2022/02/27 04:57:34;;;;;;;14.27;7.33;;;0.10;99.90;;;;;;4143225;28;20445;-80
2022/02/27 04:59:35;;;;;;;14.83;6.60;;;0.10;99.90;;;;;;4149244;28;20459;-79
2022/02/27 05:01:39;;;;;;;13.77;7.03;;;0.10;99.90;;;;;;4145529;28;20553;-80
2022/02/27 05:03:42;;;;;;;15.43;7.13;;;0.10;99.90;;;;;;4151287;28;20477;-79
2022/02/27 05:05:44;;;;;;;14.23;7.57;;;0.10;99.90;;;;;;4148444;28;20506;-79
2022/02/27 05:07:46;;;;;;;14.37;6.93;;;0.10;99.90;;;;;;4151181;28;20928;-79
2022/02/27 05:09:47;;;;;;;16.00;8.07;;;0.00;99.90;;;;;;4151913;28;20523;-79
2022/02/27 05:11:49;;;;;;;18.83;7.17;;;0.00;99.90;;;;;;4150873;28;20514;-78
2022/02/27 05:13:51;;;;;;;18.20;7.53;;;0.00;99.90;;;;;;4141732;28;20495;-79
2022/02/27 05:15:53;;;;;;;17.63;7.23;;;0.00;99.90;;;;;;4151942;28;20459;-79
2022/02/27 05:17:55;;;;;;;14.93;7.40;;;0.00;99.90;;;;;;4152443;28;20465;-78
2022/02/27 05:19:58;;;;;;;12.97;7.50;;;-0.10;99.90;;;;;;4152926;28;20459;-79
2022/02/27 05:22:00;;;;;;;19.47;7.70;;;-0.10;99.90;;;;;;4149538;28;20534;-79
2022/02/27 05:24:02;;;;;;;16.67;7.80;;;-0.10;99.90;;;;;;4153779;28;20856;-79
2022/02/27 05:26:03;;;;;;;18.37;7.73;;;-0.10;99.90;;;;;;4147112;28;20464;-79
2022/02/27 05:28:05;;;;;;;15.60;6.90;;;-0.10;99.90;;;;;;4136083;28;20484;-79
2022/02/27 05:30:08;;;;;;;15.40;7.50;;;-0.10;99.90;;;;;;4158763;28;20475;-80
2022/02/27 05:32:09;;;;;;;19.00;7.80;;;-0.10;99.90;;;;;;4145773;28;20475;-79
2022/02/27 05:34:11;;;;;;;14.70;7.20;;;-0.10;99.90;;;;;;4141888;28;20619;-79
2022/02/27 05:36:15;;;;;;;15.17;7.50;;;-0.10;99.90;;;;;;4151043;28;20955;-78
2022/02/27 05:38:17;;;;;;;16.63;7.17;;;-0.10;99.90;;;;;;4150928;28;20455;-79
2022/02/27 05:40:19;;;;;;;15.10;7.60;;;-0.30;99.90;;;;;;4143795;28;20533;-80
2022/02/27 05:42:21;;;;;;;15.67;6.63;;;-0.10;99.90;;;;;;4154563;28;20460;-78
2022/02/27 05:44:23;;;;;;;15.43;7.60;;;-0.20;99.90;;;;;;4153152;28;20459;-78
2022/02/27 05:46:25;;;;;;;17.37;7.67;;;-0.20;99.90;;;;;;4153871;28;20536;-79
2022/02/27 05:48:27;;;;;;;17.90;8.37;;;-0.10;99.90;;;;;;4154435;28;20487;-79
2022/02/27 05:50:29;;;;;;;18.13;8.13;;;-0.20;99.90;;;;;;4153362;28;21020;-79
2022/02/27 05:52:32;;;;;;;13.97;7.80;;;-0.20;99.90;;;;;;4153842;28;20478;-79
2022/02/27 05:54:33;;;;;;;15.47;7.53;;;0.00;99.90;;;;;;4152448;28;20557;-80
2022/02/27 05:56:35;;;;;;;14.03;7.40;;;-0.20;99.90;;;;;;4153749;28;20574;-79
2022/02/27 05:58:39;;;;;;;18.43;8.33;;;-0.20;99.90;;;;;;4152638;28;21009;-82
2022/02/27 06:00:41;;;;;;;16.73;7.63;;;-0.20;99.90;;;;;;4154948;28;20517;-79
2022/02/27 06:02:42;;;;;;;14.27;7.40;;;-0.30;99.90;;;;;;4155511;28;20450;-78
2022/02/27 06:04:47;;;;;;;18.93;8.07;;;-0.30;99.90;;;;;;4152614;28;20598;-80
2022/02/27 06:06:49;;;;;;;17.27;7.53;;;-0.30;99.90;;;;;;4153779;28;20455;-80
2022/02/27 06:08:52;;;;;;;19.57;8.03;;;-0.20;99.90;;;;;;4153476;28;20475;-79
2022/02/27 06:10:54;;;;;;;18.27;8.37;;;-0.20;99.90;;;;;;4145493;28;20861;-80
2022/02/27 06:12:56;;;;;;;16.33;8.37;;;-0.20;99.90;;;;;;4152645;28;20515;-80
2022/02/27 06:14:57;;;;;;;18.03;8.30;;;-0.20;99.90;;;;;;4151982;28;20482;-80
2022/02/27 06:16:59;;;;;;;19.70;9.47;;;-0.10;99.90;;;;;;4152341;28;20474;-80
2022/02/27 06:19:01;;;;;;;21.87;8.67;;;-0.10;99.90;;;;;;4147398;28;20455;-79
2022/02/27 06:21:04;;;;;;;18.47;8.57;;;-0.10;99.90;;;;;;4154216;28;20554;-80
2022/02/27 06:23:09;;;;;;;23.53;9.47;;;-0.10;99.90;;;;;;4153862;28;20483;-80
2022/02/27 06:25:13;;;;;;;19.70;8.83;;;0.00;99.90;;;;;;4150658;28;20498;-80
2022/02/27 06:27:15;;;;;;;19.90;8.70;;;0.00;99.90;;;;;;4154161;28;20463;-79
2022/02/27 06:29:16;;;;;;;15.50;8.07;;;0.00;99.90;;;;;;4152684;28;20887;-79
2022/02/27 06:31:18;;;;;;;18.37;8.73;;;0.00;99.90;;;;;;4153629;28;20463;-78
2022/02/27 06:33:20;;;;;;;19.77;8.73;;;0.00;99.90;;;;;;4149234;28;20464;-79
2022/02/27 06:35:24;;;;;;;17.07;7.97;;;0.30;99.90;;;;;;4143308;28;20492;-78
2022/02/27 06:37:26;;;;;;;17.47;8.40;;;0.10;99.90;;;;;;4138943;28;20456;-78
2022/02/27 06:39:27;;;;;;;20.43;8.10;;;0.10;99.90;;;;;;4147591;28;20529;-79
2022/02/27 06:41:30;;;;;;;20.53;8.93;;;0.10;99.90;;;;;;4154126;28;21000;-79
2022/02/27 06:43:33;;;;;;;20.20;8.70;;;0.10;99.90;;;;;;4153625;28;20480;-78
2022/02/27 06:45:35;;;;;;;21.00;9.57;;;0.10;99.90;;;;;;4150215;28;20464;-79
2022/02/27 06:47:37;;;;;;;17.00;7.93;;;0.10;99.90;;;;;;4150693;28;20954;-78
2022/02/27 06:49:39;;;;;;;21.20;8.80;;;0.20;99.90;;;;;;4154845;28;20458;-79
2022/02/27 06:51:41;;;;;;;19.13;8.03;;;0.20;99.90;;;;;;4155363;28;20888;-78
2022/02/27 06:53:43;;;;;;;19.67;8.83;;;0.20;99.90;;;;;;4154637;28;20457;-78
2022/02/27 06:55:44;;;;;;;18.90;8.73;;;0.20;99.90;;;;;;4145193;28;20964;-79
2022/02/27 06:57:50;;;;;;;19.97;8.63;;;0.30;99.90;;;;;;4139061;28;20524;-78
2022/02/27 06:59:52;;;;;;;19.60;8.70;;;0.30;99.90;;;;;;4138712;28;20523;-81
2022/02/27 07:01:53;;;;;;;18.80;8.80;;;0.30;99.90;;;;;;4152397;28;20499;-78
2022/02/27 07:03:55;;;;;;;20.30;8.77;;;0.30;99.90;;;;;;4153722;28;20867;-78
2022/02/27 07:05:57;;;;;;;18.37;8.57;;;0.30;99.90;;;;;;4140535;28;20465;-78
2022/02/27 07:07:59;;;;;;;19.30;8.57;;;0.40;99.90;;;;;;4138352;28;20483;-81
2022/02/27 07:10:01;;;;;;;17.97;8.63;;;0.40;99.90;;;;;;4139794;28;20480;-78
2022/02/27 07:12:04;;;;;;;19.60;8.50;;;0.40;99.90;;;;;;4139869;28;20458;-79
2022/02/27 07:14:07;;;;;;;19.07;9.07;;;0.40;99.90;;;;;;4141825;28;20512;-78
2022/02/27 07:16:09;;;;;;;19.00;8.77;;;0.50;99.90;;;;;;4161146;28;20457;-80
2022/02/27 07:18:11;;;;;;;19.00;8.67;;;0.50;99.90;;;;;;4171981;28;20499;-78
2022/02/27 07:20:13;;;;;;;19.97;8.83;;;0.50;99.90;;;;;;4169709;28;20618;-78
2022/02/27 07:22:15;;;;;;;18.27;8.27;;;0.60;99.90;;;;;;4169321;28;20488;-81
2022/02/27 07:24:18;;;;;;;22.30;9.17;;;0.60;99.90;;;;;;4155735;28;20550;-79
2022/02/27 07:26:19;;;;;;;21.23;9.47;;;0.60;99.90;;;;;;4152302;28;20469;-81
2022/02/27 07:28:21;;;;;;;16.73;7.77;;;0.70;99.90;;;;;;4143605;28;20868;-80
2022/02/27 07:30:24;;;;;;;19.90;8.20;;;0.70;99.90;;;;;;4138435;28;20479;-78
2022/02/27 07:32:26;;;;;;;24.00;9.37;;;0.70;99.90;;;;;;4148029;28;20506;-79
2022/02/27 07:34:28;;;;;;;18.60;8.80;;;0.80;99.90;;;;;;4155870;28;20481;-79
2022/02/27 07:36:30;;;;;;;19.80;8.47;;;0.80;99.90;;;;;;4160392;28;20474;-78
2022/02/27 07:38:32;;;;;;;20.17;9.00;;;0.80;99.90;;;;;;4162688;28;20468;-79
2022/02/27 07:40:33;;;;;;;21.60;9.00;;;0.80;99.90;;;;;;4159931;28;20462;-80
2022/02/27 07:42:35;;;;;;;19.23;8.87;;;0.80;99.90;;;;;;4159021;28;20504;-81
2022/02/27 07:44:37;;;;;;;19.63;9.03;;;0.70;99.90;;;;;;4147883;28;21105;-82
2022/02/27 07:46:41;;;;;;;20.00;9.13;;;0.90;99.90;;;;;;4140821;28;20875;-82
2022/02/27 07:48:42;;;;;;;19.43;9.00;;;0.90;99.90;;;;;;4142862;28;20488;-79
2022/02/27 07:50:44;;;;;;;21.87;9.23;;;0.90;99.90;;;;;;4150973;28;20457;-79
2022/02/27 07:52:46;;;;;;;17.03;8.90;;;0.90;99.90;;;;;;4149726;28;20462;-82
2022/02/27 07:54:48;;;;;;;18.37;8.97;;;0.90;99.90;;;;;;4149796;28;20498;-81
2022/02/27 07:56:49;;;;;;;18.57;9.27;;;1.00;99.90;;;;;;4138613;28;20477;-82
2022/02/27 07:58:52;;;;;;;19.60;8.60;;;1.00;99.90;;;;;;4148606;28;20454;-82
2022/02/27 08:00:54;;;;;;;19.37;8.93;;;1.00;99.90;;;;;;4145581;28;20533;-81
2022/02/27 08:02:57;;;;;;;22.03;9.27;;;1.00;99.90;;;;;;4135779;28;20569;-79
2022/02/27 08:04:59;;;;;;;16.30;7.90;;;1.10;99.90;;;;;;4149529;28;20498;-80
2022/02/27 08:07:03;;;;;;;19.47;8.50;;;1.20;99.90;;;;;;4148407;28;20508;-79
2022/02/27 08:09:05;;;;;;;18.87;9.17;;;1.20;99.90;;;;;;4151487;28;20489;-80
2022/02/27 08:11:08;;;;;;;19.77;9.00;;;1.20;99.90;;;;;;4151457;28;20519;-79
2022/02/27 08:13:09;;;;;;;18.53;8.63;;;1.30;99.90;;;;;;4151807;28;20465;-78
2022/02/27 08:15:12;;;;;;;18.57;8.93;;;1.30;99.90;;;;;;4151898;28;20473;-78
2022/02/27 08:17:16;;;;;;;21.07;8.90;;;1.40;99.90;;;;;;4149600;28;20494;-79
2022/02/27 08:19:20;;;;;;;22.40;9.13;;;1.40;99.90;;;;;;4150836;28;20481;-78
2022/02/27 08:21:21;;;;;;;20.73;8.77;;;1.50;99.90;;;;;;4155419;28;21001;-80
2022/02/27 08:23:24;;;;;;;18.10;8.77;;;1.60;99.90;;;;;;4150952;28;20489;-79
2022/02/27 08:25:25;;;;;;;19.27;8.77;;;1.60;99.90;;;;;;4150575;28;20478;-79
2022/02/27 08:27:27;;;;;;;20.17;9.10;;;1.60;99.90;;;;;;4149331;28;20457;-78
2022/02/27 08:29:29;;;;;;;18.53;8.83;;;1.70;99.90;;;;;;4135217;28;20471;-79
2022/02/27 08:31:31;;;;;;;18.77;8.47;;;2.30;99.90;;;;;;4136036;28;20518;-79
2022/02/27 08:33:32;;;;;;;19.07;8.80;;;1.80;99.90;;;;;;4145547;28;20874;-78
2022/02/27 08:35:36;;;;;;;17.70;8.63;;;1.80;99.90;;;;;;4154107;28;20465;-80
2022/02/27 08:37:37;;;;;;;15.93;8.27;;;1.90;99.90;;;;;;4149140;28;20458;-81
2022/02/27 08:39:39;;;;;;;19.27;8.60;;;2.00;99.90;;;;;;4150553;28;20525;-79
2022/02/27 08:41:41;;;;;;;16.27;8.47;;;2.50;99.90;;;;;;4151034;28;20494;-78
2022/02/27 08:43:43;;;;;;;17.97;9.10;;;2.10;99.90;;;;;;4151363;28;21848;-81
2022/02/27 08:45:44;;;;;;;20.50;9.17;;;2.20;99.90;;;;;;4152085;28;20458;-81
2022/02/27 08:47:46;;;;;;;22.60;10.20;;;2.20;99.90;;;;;;4143063;28;20480;-82
2022/02/27 08:49:48;;;;;;;19.27;9.87;;;2.30;99.90;;;;;;4150826;28;20462;-79
2022/02/27 08:51:52;;;;;;;17.37;9.00;;;2.30;99.90;;;;;;4151949;28;20459;-81
2022/02/27 08:53:54;;;;;;;16.73;8.13;;;2.40;99.90;;;;;;4152525;28;20478;-81
2022/02/27 08:55:55;;;;;;;19.27;8.67;;;2.40;99.90;;;;;;4149104;28;20479;-80
2022/02/27 08:57:57;;;;;;;18.47;8.50;;;2.90;99.90;;;;;;4155385;28;20466;-81
2022/02/27 08:59:59;;;;;;;19.87;8.87;;;2.50;99.90;;;;;;4155326;28;20516;-81
2022/02/27 09:02:01;;;;;;;18.87;9.17;;;2.60;99.90;;;;;;4153348;28;20498;-79
2022/02/27 09:04:02;;;;;;;17.23;8.63;;;2.60;99.90;;;;;;4141823;28;20499;-79
2022/02/27 09:06:05;;;;;;;20.17;9.40;;;2.70;99.90;;;;;;4130724;28;20482;-79
2022/02/27 09:08:08;;;;;;;18.90;8.27;;;2.70;99.90;;;;;;4131722;28;20459;-79
2022/02/27 09:10:12;;;;;;;19.00;9.30;;;2.80;99.90;;;;;;4138529;28;20529;-79
2022/02/27 09:12:14;;;;;;;17.60;9.20;;;2.80;99.90;;;;;;4143608;28;20479;-80
2022/02/27 09:14:16;;;;;;;16.27;8.87;;;2.90;99.90;;;;;;4130632;28;20483;-79
2022/02/27 09:16:17;;;;;;;18.00;9.20;;;2.90;99.90;;;;;;4131815;28;20459;-79
2022/02/27 09:18:19;;;;;;;16.80;8.77;;;2.90;99.90;;;;;;4140583;28;20478;-81
2022/02/27 09:20:21;;;;;;;18.73;8.90;;;2.90;99.90;;;;;;4155166;28;20442;-80
2022/02/27 09:22:23;;;;;;;17.93;8.80;;;2.90;99.90;;;;;;4149562;28;20494;-81
2022/02/27 09:24:26;;;;;;;17.60;8.93;;;2.80;99.90;;;;;;4146352;28;20846;-80
2022/02/27 09:26:27;;;;;;;19.83;9.20;;;2.80;99.90;;;;;;4149237;28;20852;-81
2022/02/27 09:28:29;;;;;;;20.00;9.33;;;2.80;99.90;;;;;;4150432;28;20502;-80
2022/02/27 09:30:31;;;;;;;16.63;8.47;;;2.90;99.90;;;;;;4149650;28;20847;-81
2022/02/27 09:32:33;;;;;;;15.80;8.63;;;2.80;99.90;;;;;;4149715;28;20827;-81
2022/02/27 09:34:35;;;;;;;20.47;9.37;;;2.80;99.90;;;;;;4152824;28;21030;-80
2022/02/27 09:36:37;;;;;;;17.27;9.17;;;2.90;99.90;;;;;;4158394;28;20466;-81
2022/02/27 09:38:39;;;;;;;20.50;9.53;;;2.80;99.90;;;;;;4156179;28;20470;-81
2022/02/27 09:40:42;;;;;;;17.33;8.63;;;2.80;99.90;;;;;;4152913;28;20470;-81
2022/02/27 09:42:44;;;;;;;19.00;9.13;;;2.90;99.90;;;;;;4146176;28;20495;-80
2022/02/27 09:44:46;;;;;;;18.40;9.00;;;2.90;99.90;;;;;;4143384;28;20475;-78
2022/02/27 09:46:48;;;;;;;20.77;9.50;;;2.90;99.90;;;;;;4144529;28;21172;-80
2022/02/27 09:48:51;;;;;;;18.20;8.70;;;2.90;99.90;;;;;;4152874;28;20481;-81
2022/02/27 09:50:53;;;;;;;17.93;9.10;;;2.90;99.90;;;;;;4152556;28;20671;-81
2022/02/27 09:52:54;;;;;;;21.53;10.33;;;2.90;99.90;;;;;;4150349;28;20451;-82
2022/02/27 09:54:56;;;;;;;21.10;9.80;;;3.30;99.90;;;;;;4152602;28;20550;-82
2022/02/27 09:56:59;;;;;;;18.60;9.37;;;2.90;99.90;;;;;;4150050;28;21030;-81
2022/02/27 09:59:01;;;;;;;23.63;10.03;;;2.90;99.90;;;;;;4151636;28;20810;-80
2022/02/27 10:01:03;;;;;;;18.47;8.87;;;3.00;99.90;;;;;;4144055;28;20463;-81
2022/02/27 10:03:07;;;;;;;18.07;8.73;;;3.00;99.90;;;;;;4146797;28;20498;-81
2022/02/27 10:05:10;;;;;;;19.40;8.90;;;3.00;99.90;;;;;;4149666;28;20667;-81
2022/02/27 10:07:13;;;;;;;17.17;9.37;;;3.00;99.90;;;;;;4148606;28;20975;-81
2022/02/27 10:09:22;;;;;;;16.27;8.33;;;2.90;99.90;;;;;;4146984;28;20459;-81
2022/02/27 10:11:24;;;;;;;17.30;8.50;;;3.10;99.90;;;;;;4149873;28;20948;-80
2022/02/27 10:13:35;;;;;;;15.17;8.43;;;3.30;99.90;;;;;;4149940;28;20450;-81
2022/02/27 10:15:37;;;;;;;18.37;9.17;;;3.10;99.90;;;;;;4146479;28;20526;-81
2022/02/27 10:17:41;;;;;;;17.47;8.53;;;3.20;99.90;;;;;;4143287;28;20450;-81
2022/02/27 10:19:51;;;;;;;16.27;8.37;;;3.20;99.90;;;;;;4149095;28;20465;-81
2022/02/27 10:21:53;;;;;;;15.60;8.37;;;3.30;99.90;;;;;;4148211;28;20969;-80
2022/02/27 10:24:00;;;;;;;17.00;8.27;;;3.30;99.90;;;;;;4145473;28;20494;-80
2022/02/27 10:26:02;;;;;;;16.47;7.50;;;3.30;99.90;;;;;;4149704;28;20476;-80
2022/02/27 10:28:07;;;;;;;12.63;6.97;;;3.40;99.90;;;;;;4151727;28;20458;-80
2022/02/27 10:30:19;;;;;;;14.50;7.60;;;3.40;99.90;;;;;;4151181;28;20455;-79
2022/02/27 10:32:28;;;;;;;14.53;7.33;;;3.50;99.90;;;;;;4153049;28;20470;-81
2022/02/27 10:34:32;;;;;;;14.50;7.70;;;3.60;99.90;;;;;;4150543;28;20478;-80
2022/02/27 10:36:35;;;;;;;15.40;7.47;;;3.60;99.90;;;;;;4153160;28;20501;-81